sensor_id;sensor_type;location;lat;lon;timestamp;pressure;altitude;pressure_sealevel;temperature;humidity
6038;BME280;3047;42.600;23.470;2023-03-22T00:00:55;92688.88;;;10.46;100.00
6038;BME280;3047;42.600;23.470;2023-03-22T00:03:22;92689.78;;;10.44;100.00
6038;BME280;3047;42.600;23.470;2023-03-22T00:05:55;92688.25;;;10.39;100.00
6038;BME280;3047;42.600;23.470;2023-03-22T00:08:22;92684.97;;;10.37;100.00
6038;BME280;3047;42.600;23.470;2023-03-22T00:10:49;92694.63;;;10.25;100.00
6038;BME280;3047;42.600;23.470;2023-03-22T00:13:15;92694.72;;;10.22;100.00
6038;BME280;3047;42.600;23.470;2023-03-22T00:15:43;92693.03;;;10.21;100.00
6038;BME280;3047;42.600;23.470;2023-03-22T00:18:13;92692.28;;;10.19;100.00
6038;BME280;3047;42.600;23.470;2023-03-22T00:20:46;92687.34;;;10.15;100.00
6038;BME280;3047;42.600;23.470;2023-03-22T00:23:13;92689.84;;;9.90;100.00
6038;BME280;3047;42.600;23.470;2023-03-22T00:25:39;92688.03;;;9.94;100.00
6038;BME280;3047;42.600;23.470;2023-03-22T00:28:06;92681.94;;;10.01;100.00
6038;BME280;3047;42.600;23.470;2023-03-22T00:30:33;92696.03;;;10.07;100.00
6038;BME280;3047;42.600;23.470;2023-03-22T00:33:01;92666.06;;;9.98;100.00
6038;BME280;3047;42.600;23.470;2023-03-22T00:35:27;92683.00;;;9.94;100.00
6038;BME280;3047;42.600;23.470;2023-03-22T00:37:54;92678.34;;;9.82;100.00
6038;BME280;3047;42.600;23.470;2023-03-22T00:40:22;92677.47;;;9.83;100.00
6038;BME280;3047;42.600;23.470;2023-03-22T00:42:48;92676.06;;;9.74;100.00
6038;BME280;3047;42.600;23.470;2023-03-22T00:45:15;92683.56;;;9.76;100.00
6038;BME280;3047;42.600;23.470;2023-03-22T00:47:42;92673.47;;;9.77;100.00
6038;BME280;3047;42.600;23.470;2023-03-22T00:50:10;92672.44;;;9.83;100.00
6038;BME280;3047;42.600;23.470;2023-03-22T00:52:37;92663.94;;;9.85;100.00
6038;BME280;3047;42.600;23.470;2023-03-22T00:55:04;92664.03;;;9.82;100.00
6038;BME280;3047;42.600;23.470;2023-03-22T00:57:31;92668.59;;;9.71;100.00
6038;BME280;3047;42.600;23.470;2023-03-22T00:59:58;92661.25;;;9.65;100.00
6038;BME280;3047;42.600;23.470;2023-03-22T01:02:32;92638.34;;;9.45;100.00
6038;BME280;3047;42.600;23.470;2023-03-22T01:04:59;92650.75;;;9.51;100.00
6038;BME280;3047;42.600;23.470;2023-03-22T01:07:28;92665.94;;;9.49;100.00
6038;BME280;3047;42.600;23.470;2023-03-22T01:09:54;92651.19;;;9.37;100.00
6038;BME280;3047;42.600;23.470;2023-03-22T01:12:21;92657.59;;;9.47;100.00
6038;BME280;3047;42.600;23.470;2023-03-22T01:14:48;92653.03;;;9.32;100.00
6038;BME280;3047;42.600;23.470;2023-03-22T01:17:15;92656.25;;;9.35;100.00
6038;BME280;3047;42.600;23.470;2023-03-22T01:19:41;92662.28;;;9.31;100.00
6038;BME280;3047;42.600;23.470;2023-03-22T01:22:08;92652.94;;;9.35;100.00
6038;BME280;3047;42.600;23.470;2023-03-22T01:24:36;92654.69;;;9.33;100.00
6038;BME280;3047;42.600;23.470;2023-03-22T01:27:03;92651.34;;;9.32;100.00
6038;BME280;3047;42.600;23.470;2023-03-22T01:29:30;92656.63;;;9.23;100.00
6038;BME280;3047;42.600;23.470;2023-03-22T01:31:56;92649.22;;;9.19;100.00
6038;BME280;3047;42.600;23.470;2023-03-22T01:34:23;92648.22;;;9.24;100.00
6038;BME280;3047;42.600;23.470;2023-03-22T01:36:51;92652.31;;;9.28;100.00
6038;BME280;3047;42.600;23.470;2023-03-22T01:39:17;92647.41;;;9.24;100.00
6038;BME280;3047;42.600;23.470;2023-03-22T01:41:45;92655.66;;;9.29;100.00
6038;BME280;3047;42.600;23.470;2023-03-22T01:44:15;92648.91;;;9.29;100.00
6038;BME280;3047;42.600;23.470;2023-03-22T01:46:43;92650.84;;;9.21;100.00
6038;BME280;3047;42.600;23.470;2023-03-22T01:49:12;92649.72;;;9.30;100.00
6038;BME280;3047;42.600;23.470;2023-03-22T01:51:40;92653.66;;;9.12;100.00
6038;BME280;3047;42.600;23.470;2023-03-22T01:54:10;92642.84;;;9.07;100.00
6038;BME280;3047;42.600;23.470;2023-03-22T01:56:39;92612.03;;;8.99;100.00
6038;BME280;3047;42.600;23.470;2023-03-22T01:59:10;92638.38;;;9.16;100.00
6038;BME280;3047;42.600;23.470;2023-03-22T02:01:38;92612.91;;;8.98;100.00
6038;BME280;3047;42.600;23.470;2023-03-22T02:04:07;92647.91;;;9.07;100.00
6038;BME280;3047;42.600;23.470;2023-03-22T02:06:36;92643.72;;;9.06;100.00
6038;BME280;3047;42.600;23.470;2023-03-22T02:09:08;92644.41;;;9.11;100.00
6038;BME280;3047;42.600;23.470;2023-03-22T02:11:37;92652.84;;;9.10;100.00
6038;BME280;3047;42.600;23.470;2023-03-22T02:14:17;92651.06;;;9.13;100.00
6038;BME280;3047;42.600;23.470;2023-03-22T02:16:57;92649.44;;;9.11;100.00
6038;BME280;3047;42.600;23.470;2023-03-22T02:19:51;92661.56;;;9.28;100.00
6038;BME280;3047;42.600;23.470;2023-03-22T02:22:36;92643.38;;;9.18;100.00
6038;BME280;3047;42.600;23.470;2023-03-22T02:25:53;92657.94;;;9.36;100.00
6038;BME280;3047;42.600;23.470;2023-03-22T02:28:33;92659.50;;;9.12;100.00
6038;BME280;3047;42.600;23.470;2023-03-22T02:31:37;92588.66;;;8.67;100.00
6038;BME280;3047;42.600;23.470;2023-03-22T02:34:29;92663.81;;;9.07;100.00
6038;BME280;3047;42.600;23.470;2023-03-22T02:37:26;92657.16;;;9.06;100.00
6038;BME280;3047;42.600;23.470;2023-03-22T02:40:02;92650.53;;;9.04;100.00
6038;BME280;3047;42.600;23.470;2023-03-22T02:42:42;92664.47;;;9.14;100.00
6038;BME280;3047;42.600;23.470;2023-03-22T02:45:14;92668.03;;;9.08;100.00
6038;BME280;3047;42.600;23.470;2023-03-22T02:47:51;92661.59;;;8.98;100.00
6038;BME280;3047;42.600;23.470;2023-03-22T02:50:24;92672.25;;;9.08;100.00
6038;BME280;3047;42.600;23.470;2023-03-22T02:52:55;92665.28;;;9.16;100.00
6038;BME280;3047;42.600;23.470;2023-03-22T02:55:28;92662.97;;;9.08;100.00
6038;BME280;3047;42.600;23.470;2023-03-22T02:57:59;92670.78;;;8.99;100.00
6038;BME280;3047;42.600;23.470;2023-03-22T03:00:29;92666.84;;;8.90;100.00
6038;BME280;3047;42.600;23.470;2023-03-22T03:02:59;92665.28;;;8.86;100.00
6038;BME280;3047;42.600;23.470;2023-03-22T03:05:37;92637.25;;;8.69;100.00
6038;BME280;3047;42.600;23.470;2023-03-22T03:08:05;92665.56;;;8.77;100.00
6038;BME280;3047;42.600;23.470;2023-03-22T03:10:35;92663.72;;;8.82;100.00
6038;BME280;3047;42.600;23.470;2023-03-22T03:13:02;92658.53;;;8.88;100.00
6038;BME280;3047;42.600;23.470;2023-03-22T03:15:29;92670.31;;;8.88;100.00
6038;BME280;3047;42.600;23.470;2023-03-22T03:18:17;92664.47;;;8.86;100.00
6038;BME280;3047;42.600;23.470;2023-03-22T03:20:55;92635.78;;;8.62;100.00
6038;BME280;3047;42.600;23.470;2023-03-22T03:23:32;92650.63;;;8.71;100.00
6038;BME280;3047;42.600;23.470;2023-03-22T03:26:08;92668.53;;;8.91;100.00
6038;BME280;3047;42.600;23.470;2023-03-22T03:28:39;92640.31;;;8.79;100.00
6038;BME280;3047;42.600;23.470;2023-03-22T03:31:24;92670.03;;;8.97;100.00
6038;BME280;3047;42.600;23.470;2023-03-22T03:33:58;92675.22;;;8.91;100.00
6038;BME280;3047;42.600;23.470;2023-03-22T03:36:29;92675.13;;;8.94;100.00
6038;BME280;3047;42.600;23.470;2023-03-22T03:39:01;92684.91;;;9.05;100.00
6038;BME280;3047;42.600;23.470;2023-03-22T03:41:31;92683.03;;;9.11;100.00
6038;BME280;3047;42.600;23.470;2023-03-22T03:43:58;92686.56;;;9.06;100.00
6038;BME280;3047;42.600;23.470;2023-03-22T03:46:25;92671.94;;;8.89;100.00
6038;BME280;3047;42.600;23.470;2023-03-22T03:48:55;92681.81;;;8.95;100.00
6038;BME280;3047;42.600;23.470;2023-03-22T03:51:23;92671.94;;;8.89;100.00
6038;BME280;3047;42.600;23.470;2023-03-22T03:53:51;92655.63;;;8.73;100.00
6038;BME280;3047;42.600;23.470;2023-03-22T03:56:18;92677.63;;;8.96;100.00
6038;BME280;3047;42.600;23.470;2023-03-22T03:58:46;92675.06;;;8.97;100.00
6038;BME280;3047;42.600;23.470;2023-03-22T04:01:12;92680.09;;;8.97;100.00
6038;BME280;3047;42.600;23.470;2023-03-22T04:03:40;92683.53;;;8.95;100.00
6038;BME280;3047;42.600;23.470;2023-03-22T04:06:07;92687.00;;;8.90;100.00
6038;BME280;3047;42.600;23.470;2023-03-22T04:08:34;92682.56;;;8.99;100.00
6038;BME280;3047;42.600;23.470;2023-03-22T04:11:00;92681.00;;;8.95;100.00
6038;BME280;3047;42.600;23.470;2023-03-22T04:13:27;92694.56;;;8.90;100.00
6038;BME280;3047;42.600;23.470;2023-03-22T04:15:55;92680.59;;;8.80;100.00
6038;BME280;3047;42.600;23.470;2023-03-22T04:18:26;92648.22;;;8.66;100.00
6038;BME280;3047;42.600;23.470;2023-03-22T04:20:54;92693.66;;;8.93;100.00
6038;BME280;3047;42.600;23.470;2023-03-22T04:23:21;92693.50;;;8.98;100.00
6038;BME280;3047;42.600;23.470;2023-03-22T04:25:50;92704.34;;;9.01;100.00
6038;BME280;3047;42.600;23.470;2023-03-22T04:28:17;92671.41;;;8.78;100.00
6038;BME280;3047;42.600;23.470;2023-03-22T04:30:45;92696.03;;;8.98;100.00
6038;BME280;3047;42.600;23.470;2023-03-22T04:33:16;92707.63;;;9.03;100.00
6038;BME280;3047;42.600;23.470;2023-03-22T04:35:44;92645.59;;;8.71;100.00
6038;BME280;3047;42.600;23.470;2023-03-22T04:38:11;92701.16;;;8.95;100.00
6038;BME280;3047;42.600;23.470;2023-03-22T04:40:38;92696.31;;;8.88;100.00
6038;BME280;3047;42.600;23.470;2023-03-22T04:43:10;92701.34;;;8.88;100.00
6038;BME280;3047;42.600;23.470;2023-03-22T04:45:37;92697.06;;;8.90;100.00
6038;BME280;3047;42.600;23.470;2023-03-22T04:48:04;92709.31;;;9.03;100.00
6038;BME280;3047;42.600;23.470;2023-03-22T04:50:33;92710.06;;;9.06;100.00
6038;BME280;3047;42.600;23.470;2023-03-22T04:53:00;92677.47;;;8.71;100.00
6038;BME280;3047;42.600;23.470;2023-03-22T04:55:27;92653.00;;;8.46;100.00
6038;BME280;3047;42.600;23.470;2023-03-22T04:57:54;92681.50;;;8.78;100.00
6038;BME280;3047;42.600;23.470;2023-03-22T05:00:21;92717.94;;;8.96;100.00
6038;BME280;3047;42.600;23.470;2023-03-22T05:02:47;92715.31;;;8.99;100.00
6038;BME280;3047;42.600;23.470;2023-03-22T05:05:14;92720.19;;;9.05;100.00
6038;BME280;3047;42.600;23.470;2023-03-22T05:07:42;92708.63;;;8.98;100.00
6038;BME280;3047;42.600;23.470;2023-03-22T05:10:09;92730.94;;;9.10;100.00
6038;BME280;3047;42.600;23.470;2023-03-22T05:12:36;92727.91;;;8.99;100.00
6038;BME280;3047;42.600;23.470;2023-03-22T05:15:03;92743.41;;;8.85;100.00
6038;BME280;3047;42.600;23.470;2023-03-22T05:17:31;92739.81;;;8.94;100.00
6038;BME280;3047;42.600;23.470;2023-03-22T05:19:57;92742.88;;;9.03;100.00
6038;BME280;3047;42.600;23.470;2023-03-22T05:22:31;92739.41;;;9.07;100.00
6038;BME280;3047;42.600;23.470;2023-03-22T05:25:00;92735.31;;;9.05;100.00
6038;BME280;3047;42.600;23.470;2023-03-22T05:27:27;92743.88;;;8.98;100.00
6038;BME280;3047;42.600;23.470;2023-03-22T05:29:58;92737.16;;;8.98;100.00
6038;BME280;3047;42.600;23.470;2023-03-22T05:32:26;92743.00;;;9.00;100.00
6038;BME280;3047;42.600;23.470;2023-03-22T05:34:54;92738.50;;;9.10;100.00
6038;BME280;3047;42.600;23.470;2023-03-22T05:37:20;92747.84;;;9.06;100.00
6038;BME280;3047;42.600;23.470;2023-03-22T05:39:47;92699.16;;;8.76;100.00
6038;BME280;3047;42.600;23.470;2023-03-22T05:42:16;92742.03;;;9.04;100.00
6038;BME280;3047;42.600;23.470;2023-03-22T05:44:42;92751.41;;;8.99;100.00
6038;BME280;3047;42.600;23.470;2023-03-22T05:47:09;92742.72;;;9.09;100.00
6038;BME280;3047;42.600;23.470;2023-03-22T05:49:36;92742.50;;;9.17;100.00
6038;BME280;3047;42.600;23.470;2023-03-22T05:52:03;92736.66;;;9.16;100.00
6038;BME280;3047;42.600;23.470;2023-03-22T05:54:30;92751.03;;;9.13;100.00
6038;BME280;3047;42.600;23.470;2023-03-22T05:56:57;92749.13;;;9.21;100.00
6038;BME280;3047;42.600;23.470;2023-03-22T05:59:25;92759.00;;;9.27;100.00
6038;BME280;3047;42.600;23.470;2023-03-22T06:01:52;92762.31;;;9.29;100.00
6038;BME280;3047;42.600;23.470;2023-03-22T06:04:19;92753.78;;;9.33;100.00
6038;BME280;3047;42.600;23.470;2023-03-22T06:06:46;92769.00;;;9.30;100.00
6038;BME280;3047;42.600;23.470;2023-03-22T06:09:13;92772.69;;;9.19;100.00
6038;BME280;3047;42.600;23.470;2023-03-22T06:11:40;92741.72;;;9.15;100.00
6038;BME280;3047;42.600;23.470;2023-03-22T06:14:07;92774.56;;;9.41;100.00
6038;BME280;3047;42.600;23.470;2023-03-22T06:16:35;92778.66;;;9.46;100.00
6038;BME280;3047;42.600;23.470;2023-03-22T06:19:02;92772.19;;;9.35;100.00
6038;BME280;3047;42.600;23.470;2023-03-22T06:21:28;92780.50;;;9.39;100.00
6038;BME280;3047;42.600;23.470;2023-03-22T06:23:55;92786.97;;;9.48;100.00
6038;BME280;3047;42.600;23.470;2023-03-22T06:26:22;92786.00;;;9.53;100.00
6038;BME280;3047;42.600;23.470;2023-03-22T06:28:48;92790.16;;;9.54;100.00
6038;BME280;3047;42.600;23.470;2023-03-22T06:31:15;92778.78;;;9.41;100.00
6038;BME280;3047;42.600;23.470;2023-03-22T06:33:43;92779.59;;;9.41;100.00
6038;BME280;3047;42.600;23.470;2023-03-22T06:36:10;92782.66;;;9.51;100.00
6038;BME280;3047;42.600;23.470;2023-03-22T06:38:37;92781.81;;;9.52;100.00
6038;BME280;3047;42.600;23.470;2023-03-22T06:41:04;92711.75;;;9.06;100.00
6038;BME280;3047;42.600;23.470;2023-03-22T06:43:31;92781.94;;;9.48;100.00
6038;BME280;3047;42.600;23.470;2023-03-22T06:45:57;92782.66;;;9.53;100.00
6038;BME280;3047;42.600;23.470;2023-03-22T06:48:25;92782.50;;;9.57;100.00
6038;BME280;3047;42.600;23.470;2023-03-22T06:50:53;92787.34;;;9.63;100.00
6038;BME280;3047;42.600;23.470;2023-03-22T06:53:19;92789.66;;;9.71;100.00
6038;BME280;3047;42.600;23.470;2023-03-22T06:55:46;92787.09;;;9.73;100.00
6038;BME280;3047;42.600;23.470;2023-03-22T06:58:13;92785.91;;;9.84;100.00
6038;BME280;3047;42.600;23.470;2023-03-22T07:00:39;92794.97;;;9.90;100.00
6038;BME280;3047;42.600;23.470;2023-03-22T07:03:06;92799.94;;;9.93;100.00
6038;BME280;3047;42.600;23.470;2023-03-22T07:05:33;92804.91;;;9.95;100.00
6038;BME280;3047;42.600;23.470;2023-03-22T07:08:01;92799.19;;;9.89;100.00
6038;BME280;3047;42.600;23.470;2023-03-22T07:10:28;92807.66;;;9.87;100.00
6038;BME280;3047;42.600;23.470;2023-03-22T07:12:55;92805.19;;;9.85;100.00
6038;BME280;3047;42.600;23.470;2023-03-22T07:15:22;92816.13;;;9.86;100.00
6038;BME280;3047;42.600;23.470;2023-03-22T07:17:49;92814.88;;;9.71;100.00
6038;BME280;3047;42.600;23.470;2023-03-22T07:20:16;92820.44;;;9.82;100.00
6038;BME280;3047;42.600;23.470;2023-03-22T07:22:43;92823.69;;;9.86;100.00
6038;BME280;3047;42.600;23.470;2023-03-22T07:25:11;92826.25;;;9.84;100.00
6038;BME280;3047;42.600;23.470;2023-03-22T07:27:38;92817.38;;;9.73;100.00
6038;BME280;3047;42.600;23.470;2023-03-22T07:30:06;92833.13;;;9.79;100.00
6038;BME280;3047;42.600;23.470;2023-03-22T07:32:33;92838.13;;;9.81;100.00
6038;BME280;3047;42.600;23.470;2023-03-22T07:35:00;92837.84;;;9.90;100.00
6038;BME280;3047;42.600;23.470;2023-03-22T07:37:27;92837.78;;;9.91;100.00
6038;BME280;3047;42.600;23.470;2023-03-22T07:39:53;92835.28;;;9.91;100.00
6038;BME280;3047;42.600;23.470;2023-03-22T07:42:21;92842.84;;;9.91;100.00
6038;BME280;3047;42.600;23.470;2023-03-22T07:44:48;92831.19;;;9.87;100.00
6038;BME280;3047;42.600;23.470;2023-03-22T07:47:15;92838.50;;;9.97;100.00
6038;BME280;3047;42.600;23.470;2023-03-22T07:49:41;92849.28;;;10.02;100.00
6038;BME280;3047;42.600;23.470;2023-03-22T07:52:08;92841.50;;;10.08;100.00
6038;BME280;3047;42.600;23.470;2023-03-22T07:54:35;92834.66;;;10.11;100.00
6038;BME280;3047;42.600;23.470;2023-03-22T07:57:02;92809.28;;;9.89;100.00
6038;BME280;3047;42.600;23.470;2023-03-22T07:59:31;92838.75;;;10.15;100.00
6038;BME280;3047;42.600;23.470;2023-03-22T08:01:58;92839.50;;;10.19;100.00
6038;BME280;3047;42.600;23.470;2023-03-22T08:04:24;92824.72;;;10.07;100.00
6038;BME280;3047;42.600;23.470;2023-03-22T08:06:52;92815.47;;;9.79;100.00
6038;BME280;3047;42.600;23.470;2023-03-22T08:09:23;92847.75;;;9.96;100.00
6038;BME280;3047;42.600;23.470;2023-03-22T08:11:49;92850.09;;;10.02;100.00
6038;BME280;3047;42.600;23.470;2023-03-22T08:14:16;92844.09;;;10.06;100.00
6038;BME280;3047;42.600;23.470;2023-03-22T08:16:44;92848.47;;;10.01;100.00
6038;BME280;3047;42.600;23.470;2023-03-22T08:19:11;92849.13;;;10.06;100.00
6038;BME280;3047;42.600;23.470;2023-03-22T08:21:38;92853.97;;;10.14;100.00
6038;BME280;3047;42.600;23.470;2023-03-22T08:24:05;92852.19;;;10.16;100.00
6038;BME280;3047;42.600;23.470;2023-03-22T08:26:32;92853.22;;;10.10;100.00
6038;BME280;3047;42.600;23.470;2023-03-22T08:28:58;92824.41;;;9.89;100.00
6038;BME280;3047;42.600;23.470;2023-03-22T08:31:25;92851.66;;;10.06;100.00
6038;BME280;3047;42.600;23.470;2023-03-22T08:33:53;92837.72;;;9.95;100.00
6038;BME280;3047;42.600;23.470;2023-03-22T08:36:20;92850.97;;;10.01;100.00
6038;BME280;3047;42.600;23.470;2023-03-22T08:38:48;92845.56;;;9.85;100.00
6038;BME280;3047;42.600;23.470;2023-03-22T08:41:14;92833.03;;;9.82;100.00
6038;BME280;3047;42.600;23.470;2023-03-22T08:43:41;92841.16;;;9.92;100.00
6038;BME280;3047;42.600;23.470;2023-03-22T08:46:08;92858.69;;;9.97;100.00
6038;BME280;3047;42.600;23.470;2023-03-22T08:48:35;92852.03;;;9.94;100.00
6038;BME280;3047;42.600;23.470;2023-03-22T08:51:04;92816.72;;;9.66;100.00
6038;BME280;3047;42.600;23.470;2023-03-22T08:53:31;92843.22;;;9.79;100.00
6038;BME280;3047;42.600;23.470;2023-03-22T08:55:57;92869.00;;;9.89;100.00
6038;BME280;3047;42.600;23.470;2023-03-22T08:58:26;92878.38;;;9.84;100.00
6038;BME280;3047;42.600;23.470;2023-03-22T09:00:53;92861.47;;;9.87;100.00
6038;BME280;3047;42.600;23.470;2023-03-22T09:03:19;92777.16;;;9.38;100.00
6038;BME280;3047;42.600;23.470;2023-03-22T09:05:48;92869.69;;;9.94;100.00
6038;BME280;3047;42.600;23.470;2023-03-22T09:08:16;92878.28;;;9.88;100.00
6038;BME280;3047;42.600;23.470;2023-03-22T09:10:43;92875.69;;;9.90;100.00
6038;BME280;3047;42.600;23.470;2023-03-22T09:13:12;92863.31;;;9.82;100.00
6038;BME280;3047;42.600;23.470;2023-03-22T09:15:40;92875.63;;;9.93;100.00
6038;BME280;3047;42.600;23.470;2023-03-22T09:18:09;92875.41;;;10.01;100.00
6038;BME280;3047;42.600;23.470;2023-03-22T09:20:36;92876.00;;;10.07;100.00
6038;BME280;3047;42.600;23.470;2023-03-22T09:23:03;92851.97;;;9.96;100.00
6038;BME280;3047;42.600;23.470;2023-03-22T09:25:31;92872.53;;;10.11;100.00
6038;BME280;3047;42.600;23.470;2023-03-22T09:27:58;92877.41;;;10.18;100.00
6038;BME280;3047;42.600;23.470;2023-03-22T09:30:25;92876.31;;;10.26;100.00
6038;BME280;3047;42.600;23.470;2023-03-22T09:32:53;92880.41;;;10.30;100.00
6038;BME280;3047;42.600;23.470;2023-03-22T09:35:20;92883.19;;;10.21;100.00
6038;BME280;3047;42.600;23.470;2023-03-22T09:37:46;92878.84;;;10.26;100.00
6038;BME280;3047;42.600;23.470;2023-03-22T09:40:14;92877.97;;;10.27;100.00
6038;BME280;3047;42.600;23.470;2023-03-22T09:42:44;92873.72;;;10.29;100.00
6038;BME280;3047;42.600;23.470;2023-03-22T09:45:14;92876.84;;;10.36;100.00
6038;BME280;3047;42.600;23.470;2023-03-22T09:47:44;92855.50;;;10.18;100.00
6038;BME280;3047;42.600;23.470;2023-03-22T09:50:14;92888.56;;;10.38;100.00
6038;BME280;3047;42.600;23.470;2023-03-22T09:52:43;92872.84;;;10.30;100.00
6038;BME280;3047;42.600;23.470;2023-03-22T09:55:17;92859.53;;;10.25;100.00
6038;BME280;3047;42.600;23.470;2023-03-22T09:57:53;92865.69;;;10.15;100.00
6038;BME280;3047;42.600;23.470;2023-03-22T10:00:29;92890.44;;;10.32;100.00
6038;BME280;3047;42.600;23.470;2023-03-22T10:03:06;92892.22;;;10.30;100.00
6038;BME280;3047;42.600;23.470;2023-03-22T10:05:39;92895.00;;;10.19;100.00
6038;BME280;3047;42.600;23.470;2023-03-22T10:08:41;92887.34;;;10.22;100.00
6038;BME280;3047;42.600;23.470;2023-03-22T10:11:15;92865.63;;;10.16;100.00
6038;BME280;3047;42.600;23.470;2023-03-22T10:13:50;92903.63;;;10.42;100.00
6038;BME280;3047;42.600;23.470;2023-03-22T10:16:26;92891.84;;;10.42;100.00
6038;BME280;3047;42.600;23.470;2023-03-22T10:18:58;92897.84;;;10.38;100.00
6038;BME280;3047;42.600;23.470;2023-03-22T10:21:28;92883.03;;;10.27;100.00
6038;BME280;3047;42.600;23.470;2023-03-22T10:23:56;92890.66;;;10.26;100.00
6038;BME280;3047;42.600;23.470;2023-03-22T10:26:27;92883.19;;;10.21;100.00
6038;BME280;3047;42.600;23.470;2023-03-22T10:28:58;92895.00;;;10.19;100.00
6038;BME280;3047;42.600;23.470;2023-03-22T10:31:28;92887.00;;;10.06;100.00
6038;BME280;3047;42.600;23.470;2023-03-22T10:33:58;92893.53;;;10.12;100.00
6038;BME280;3047;42.600;23.470;2023-03-22T10:36:27;92900.06;;;10.19;100.00
6038;BME280;3047;42.600;23.470;2023-03-22T10:39:03;92888.47;;;10.13;100.00
6038;BME280;3047;42.600;23.470;2023-03-22T10:41:33;92866.28;;;9.95;100.00
6038;BME280;3047;42.600;23.470;2023-03-22T10:44:03;92862.19;;;9.93;100.00
6038;BME280;3047;42.600;23.470;2023-03-22T10:46:35;92889.28;;;10.14;100.00
6038;BME280;3047;42.600;23.470;2023-03-22T10:49:04;92895.25;;;10.11;100.00
6038;BME280;3047;42.600;23.470;2023-03-22T10:51:35;92864.69;;;9.93;100.00
6038;BME280;3047;42.600;23.470;2023-03-22T10:54:11;92894.28;;;10.15;100.00
6038;BME280;3047;42.600;23.470;2023-03-22T10:56:38;92832.34;;;9.77;100.00
6038;BME280;3047;42.600;23.470;2023-03-22T10:59:07;92890.84;;;10.18;100.00
6038;BME280;3047;42.600;23.470;2023-03-22T11:01:43;92880.78;;;10.16;100.00
6038;BME280;3047;42.600;23.470;2023-03-22T11:04:12;92867.47;;;10.11;100.00
6038;BME280;3047;42.600;23.470;2023-03-22T11:06:47;92859.28;;;10.05;100.00
6038;BME280;3047;42.600;23.470;2023-03-22T11:09:16;92887.75;;;10.08;100.00
6038;BME280;3047;42.600;23.470;2023-03-22T11:11:47;92885.75;;;10.20;100.00
6038;BME280;3047;42.600;23.470;2023-03-22T11:14:19;92884.63;;;10.30;100.00
6038;BME280;3047;42.600;23.470;2023-03-22T11:16:52;92883.59;;;10.35;100.00
6038;BME280;3047;42.600;23.470;2023-03-22T11:19:23;92868.59;;;10.31;100.00
6038;BME280;3047;42.600;23.470;2023-03-22T11:21:53;92880.78;;;10.45;100.00
6038;BME280;3047;42.600;23.470;2023-03-22T11:24:20;92874.41;;;10.33;100.00
6038;BME280;3047;42.600;23.470;2023-03-22T11:27:02;92877.44;;;10.44;100.00
6038;BME280;3047;42.600;23.470;2023-03-22T11:29:39;92877.22;;;10.52;100.00
6038;BME280;3047;42.600;23.470;2023-03-22T11:32:19;92870.28;;;10.58;100.00
6038;BME280;3047;42.600;23.470;2023-03-22T11:34:46;92878.72;;;10.57;100.00
6038;BME280;3047;42.600;23.470;2023-03-22T11:37:15;92876.31;;;10.53;100.00
6038;BME280;3047;42.600;23.470;2023-03-22T11:39:45;92882.22;;;10.53;100.00
6038;BME280;3047;42.600;23.470;2023-03-22T11:42:18;92876.63;;;10.44;100.00
6038;BME280;3047;42.600;23.470;2023-03-22T11:44:47;92847.75;;;10.26;100.00
6038;BME280;3047;42.600;23.470;2023-03-22T11:47:14;92876.47;;;10.48;100.00
6038;BME280;3047;42.600;23.470;2023-03-22T11:49:44;92846.03;;;10.26;100.00
6038;BME280;3047;42.600;23.470;2023-03-22T11:52:15;92872.25;;;10.49;100.00
6038;BME280;3047;42.600;23.470;2023-03-22T11:54:44;92878.09;;;10.51;100.00
6038;BME280;3047;42.600;23.470;2023-03-22T11:57:14;92870.44;;;10.52;100.00
6038;BME280;3047;42.600;23.470;2023-03-22T11:59:51;92882.00;;;10.59;100.00
6038;BME280;3047;42.600;23.470;2023-03-22T12:02:22;92870.38;;;10.55;100.00
6038;BME280;3047;42.600;23.470;2023-03-22T12:04:55;92874.59;;;10.55;100.00
6038;BME280;3047;42.600;23.470;2023-03-22T12:07:26;92855.91;;;10.34;100.00
6038;BME280;3047;42.600;23.470;2023-03-22T12:09:57;92874.59;;;10.55;100.00
6038;BME280;3047;42.600;23.470;2023-03-22T12:12:28;92839.66;;;10.41;100.00
6038;BME280;3047;42.600;23.470;2023-03-22T12:15:00;92871.09;;;10.59;100.00
6038;BME280;3047;42.600;23.470;2023-03-22T12:17:32;92836.44;;;10.37;100.00
6038;BME280;3047;42.600;23.470;2023-03-22T12:20:11;92872.41;;;10.71;100.00
6038;BME280;3047;42.600;23.470;2023-03-22T12:22:46;92861.72;;;10.62;100.00
6038;BME280;3047;42.600;23.470;2023-03-22T12:25:16;92863.06;;;10.73;100.00
6038;BME280;3047;42.600;23.470;2023-03-22T12:27:46;92867.19;;;10.75;100.00
6038;BME280;3047;42.600;23.470;2023-03-22T12:30:17;92842.53;;;10.57;100.00
6038;BME280;3047;42.600;23.470;2023-03-22T12:32:48;92867.28;;;10.72;100.00
6038;BME280;3047;42.600;23.470;2023-03-22T12:35:20;92855.84;;;10.62;100.00
6038;BME280;3047;42.600;23.470;2023-03-22T12:37:51;92874.19;;;10.67;100.00
6038;BME280;3047;42.600;23.470;2023-03-22T12:40:22;92861.66;;;10.64;100.00
6038;BME280;3047;42.600;23.470;2023-03-22T12:42:56;92864.09;;;10.67;100.00
6038;BME280;3047;42.600;23.470;2023-03-22T12:45:27;92861.72;;;10.62;100.00
6038;BME280;3047;42.600;23.470;2023-03-22T12:47:59;92820.09;;;10.48;100.00
6038;BME280;3047;42.600;23.470;2023-03-22T12:50:33;92872.88;;;10.82;100.00
6038;BME280;3047;42.600;23.470;2023-03-22T12:53:02;92866.84;;;10.86;100.00
6038;BME280;3047;42.600;23.470;2023-03-22T12:55:30;92863.47;;;10.85;100.00
6038;BME280;3047;42.600;23.470;2023-03-22T12:57:58;92862.81;;;10.80;100.00
6038;BME280;3047;42.600;23.470;2023-03-22T13:00:28;92858.41;;;10.85;100.00
6038;BME280;3047;42.600;23.470;2023-03-22T13:03:01;92849.19;;;10.84;100.00
6038;BME280;3047;42.600;23.470;2023-03-22T13:05:29;92857.72;;;10.82;100.00
6038;BME280;3047;42.600;23.470;2023-03-22T13:07:59;92861.84;;;10.84;100.00
6038;BME280;3047;42.600;23.470;2023-03-22T13:10:57;92789.03;;;10.46;100.00
6038;BME280;3047;42.600;23.470;2023-03-22T13:13:45;92855.66;;;10.93;100.00
6038;BME280;3047;42.600;23.470;2023-03-22T13:16:22;92852.25;;;10.94;100.00
6038;BME280;3047;42.600;23.470;2023-03-22T13:19:00;92804.66;;;10.82;100.00
6038;BME280;3047;42.600;23.470;2023-03-22T13:21:28;92852.53;;;11.10;100.00